Coraopolis, PA

8:04 PM EDT on August 29, 2016 (GMT -0400)
Tranquility Bade/Moon Twsp | | Change Station

Elev 1099 ft 40.50 °N, 80.17 °W | Updated 25 minutes ago

Partly Cloudy
Partly Cloudy
83.3 °F
Feels Like 85 °F
N
1.1
Wind Variable Wind from NNW

Today
High -- | Low -- °F
--% Chance of Precip.
Yesterday
High -- | Low -- °F
Precip. -- in
Pressure 30.18 in
Visibility 10.0 miles
Clouds Few 4000 ft
Heat Index 85 °F
Dew Point 64 °F
Humidity 53%
Rainfall 0.00 in
Snow Depth Not available.
6:45 AM 7:56 PM
Waning Crescent, 6% visible
METAR KPIT 292351Z 36006KT 10SM FEW040 27/11 A3018 RMK AO2 SLP219 T02720111 10306 20272 55002
Pressure 30.18 in
Visibility 10.0 miles
Clouds Few 4000 ft
Heat Index 85 °F
Dew Point 64 °F
Humidity 53%
Rainfall 0.00 in
Snow Depth Not available.
6:45 AM 7:56 PM
Waning Crescent, 6% visible
METAR KPIT 292351Z 36006KT 10SM FEW040 27/11 A3018 RMK AO2 SLP219 T02720111 10306 20272 55002

10-Day Weather Forecast

Almanac

Astronomy

Aug. 29, 2016 Rise Set
Actual Time
Civil Twilight
Nautical Twilight
Astronomical Twilight
Moon
Length of Visible Light
Length of Day
Tomorrow will be .
, % of the Moon is Illuminated

Today's Extremes

State Highs State Lows

Community

WunderPhotos

Upload Photos

1,935,699 photos uploaded!

WunderBlog® & News

Nearby

Air Quality

  Air Quality AQ Index Pollutant
Not available.

Snow Depth

Station Depth Elevation

Earthquake Activity

City Distance Mag. Time & Date
Minimum magnitude displayed is 2.5.

Coastal Water Temperatures

Place Temperature

Stations

Nearby Weather Stations

Station Location Temp. Windchill Dew Point Humidity Wind Precip. Elev Updated Type
                   

Watches & Warnings

There are currently no watches in effect.